sensor_id;sensor_type;location;lat;lon;timestamp;P1;durP1;ratioP1;P2;durP2;ratioP2
6185;SDS011;3126;52.738;8.316;2023-04-10T00:03:09;38.80;;;20.60;;
6185;SDS011;3126;52.738;8.316;2023-04-10T00:08:10;41.25;;;21.40;;
6185;SDS011;3126;52.738;8.316;2023-04-10T00:13:11;41.22;;;22.83;;
6185;SDS011;3126;52.738;8.316;2023-04-10T00:18:12;41.22;;;22.30;;
6185;SDS011;3126;52.738;8.316;2023-04-10T00:23:13;46.55;;;22.02;;
6185;SDS011;3126;52.738;8.316;2023-04-10T00:28:14;37.20;;;19.88;;
6185;SDS011;3126;52.738;8.316;2023-04-10T00:33:16;37.15;;;19.92;;
6185;SDS011;3126;52.738;8.316;2023-04-10T00:38:17;39.38;;;22.55;;
6185;SDS011;3126;52.738;8.316;2023-04-10T00:43:18;34.85;;;19.08;;
6185;SDS011;3126;52.738;8.316;2023-04-10T00:48:20;35.88;;;19.48;;
6185;SDS011;3126;52.738;8.316;2023-04-10T00:53:21;39.75;;;22.10;;
6185;SDS011;3126;52.738;8.316;2023-04-10T00:58:22;39.65;;;21.85;;
6185;SDS011;3126;52.738;8.316;2023-04-10T01:03:23;42.63;;;22.02;;
6185;SDS011;3126;52.738;8.316;2023-04-10T01:08:27;43.17;;;23.30;;
6185;SDS011;3126;52.738;8.316;2023-04-10T01:13:35;43.17;;;24.40;;
6185;SDS011;3126;52.738;8.316;2023-04-10T01:18:42;46.67;;;25.58;;
6185;SDS011;3126;52.738;8.316;2023-04-10T01:23:51;45.25;;;25.23;;
6185;SDS011;3126;52.738;8.316;2023-04-10T01:29:00;42.28;;;22.48;;
6185;SDS011;3126;52.738;8.316;2023-04-10T01:34:03;41.97;;;23.17;;
6185;SDS011;3126;52.738;8.316;2023-04-10T01:44:07;42.85;;;23.17;;
6185;SDS011;3126;52.738;8.316;2023-04-10T01:49:10;46.03;;;23.38;;
6185;SDS011;3126;52.738;8.316;2023-04-10T01:54:12;45.85;;;24.83;;
6185;SDS011;3126;52.738;8.316;2023-04-10T01:59:13;46.08;;;26.35;;
6185;SDS011;3126;52.738;8.316;2023-04-10T02:04:14;49.78;;;25.75;;
6185;SDS011;3126;52.738;8.316;2023-04-10T02:09:27;49.00;;;25.10;;
6185;SDS011;3126;52.738;8.316;2023-04-10T02:14:29;48.03;;;25.98;;
6185;SDS011;3126;52.738;8.316;2023-04-10T02:19:31;49.28;;;24.88;;
6185;SDS011;3126;52.738;8.316;2023-04-10T02:24:32;47.13;;;26.83;;
6185;SDS011;3126;52.738;8.316;2023-04-10T02:29:34;43.15;;;25.95;;
6185;SDS011;3126;52.738;8.316;2023-04-10T02:34:35;50.40;;;25.70;;
6185;SDS011;3126;52.738;8.316;2023-04-10T02:39:36;48.78;;;29.67;;
6185;SDS011;3126;52.738;8.316;2023-04-10T02:44:37;49.90;;;25.83;;
6185;SDS011;3126;52.738;8.316;2023-04-10T02:49:38;46.47;;;25.85;;
6185;SDS011;3126;52.738;8.316;2023-04-10T02:54:39;45.83;;;25.55;;
6185;SDS011;3126;52.738;8.316;2023-04-10T02:59:40;49.85;;;25.38;;
6185;SDS011;3126;52.738;8.316;2023-04-10T03:04:42;48.25;;;26.25;;
6185;SDS011;3126;52.738;8.316;2023-04-10T03:09:43;42.88;;;24.75;;
6185;SDS011;3126;52.738;8.316;2023-04-10T03:14:44;45.83;;;25.30;;
6185;SDS011;3126;52.738;8.316;2023-04-10T03:19:45;39.15;;;23.65;;
6185;SDS011;3126;52.738;8.316;2023-04-10T03:24:46;48.22;;;26.23;;
6185;SDS011;3126;52.738;8.316;2023-04-10T03:29:47;47.55;;;25.45;;
6185;SDS011;3126;52.738;8.316;2023-04-10T03:34:48;43.70;;;23.98;;
6185;SDS011;3126;52.738;8.316;2023-04-10T03:39:49;46.35;;;23.95;;
6185;SDS011;3126;52.738;8.316;2023-04-10T03:44:50;46.35;;;24.15;;
6185;SDS011;3126;52.738;8.316;2023-04-10T03:49:51;48.10;;;25.42;;
6185;SDS011;3126;52.738;8.316;2023-04-10T03:54:55;43.15;;;24.25;;
6185;SDS011;3126;52.738;8.316;2023-04-10T03:59:56;36.78;;;22.17;;
6185;SDS011;3126;52.738;8.316;2023-04-10T04:04:57;40.05;;;22.70;;
6185;SDS011;3126;52.738;8.316;2023-04-10T04:09:58;39.33;;;21.30;;
6185;SDS011;3126;52.738;8.316;2023-04-10T04:14:59;39.60;;;21.50;;
6185;SDS011;3126;52.738;8.316;2023-04-10T04:20:00;37.83;;;21.33;;
6185;SDS011;3126;52.738;8.316;2023-04-10T04:25:01;35.40;;;20.50;;
6185;SDS011;3126;52.738;8.316;2023-04-10T04:30:06;34.28;;;21.15;;
6185;SDS011;3126;52.738;8.316;2023-04-10T04:35:09;43.83;;;22.25;;
6185;SDS011;3126;52.738;8.316;2023-04-10T04:40:10;36.83;;;21.35;;
6185;SDS011;3126;52.738;8.316;2023-04-10T04:45:11;42.45;;;21.63;;
6185;SDS011;3126;52.738;8.316;2023-04-10T04:50:13;39.95;;;21.27;;
6185;SDS011;3126;52.738;8.316;2023-04-10T04:55:14;37.38;;;20.73;;
6185;SDS011;3126;52.738;8.316;2023-04-10T05:00:15;36.38;;;19.70;;
6185;SDS011;3126;52.738;8.316;2023-04-10T05:05:16;37.47;;;20.10;;
6185;SDS011;3126;52.738;8.316;2023-04-10T05:10:17;39.65;;;20.90;;
6185;SDS011;3126;52.738;8.316;2023-04-10T05:15:18;32.70;;;18.38;;
6185;SDS011;3126;52.738;8.316;2023-04-10T05:20:19;34.50;;;19.38;;
6185;SDS011;3126;52.738;8.316;2023-04-10T05:25:20;36.75;;;19.83;;
6185;SDS011;3126;52.738;8.316;2023-04-10T05:30:21;34.03;;;19.45;;
6185;SDS011;3126;52.738;8.316;2023-04-10T05:35:23;31.45;;;17.73;;
6185;SDS011;3126;52.738;8.316;2023-04-10T05:40:25;32.38;;;17.48;;
6185;SDS011;3126;52.738;8.316;2023-04-10T05:45:25;30.38;;;18.48;;
6185;SDS011;3126;52.738;8.316;2023-04-10T05:50:27;32.88;;;18.48;;
6185;SDS011;3126;52.738;8.316;2023-04-10T05:55:31;32.70;;;18.83;;
6185;SDS011;3126;52.738;8.316;2023-04-10T06:05:33;29.20;;;17.60;;
6185;SDS011;3126;52.738;8.316;2023-04-10T06:10:34;27.48;;;16.08;;
6185;SDS011;3126;52.738;8.316;2023-04-10T06:15:36;28.05;;;17.13;;
6185;SDS011;3126;52.738;8.316;2023-04-10T06:20:38;25.45;;;15.52;;
6185;SDS011;3126;52.738;8.316;2023-04-10T06:25:40;29.40;;;17.77;;
6185;SDS011;3126;52.738;8.316;2023-04-10T06:30:41;27.15;;;15.48;;
6185;SDS011;3126;52.738;8.316;2023-04-10T06:35:42;26.60;;;14.68;;
6185;SDS011;3126;52.738;8.316;2023-04-10T06:40:43;25.23;;;16.08;;
6185;SDS011;3126;52.738;8.316;2023-04-10T06:45:44;23.40;;;14.55;;
6185;SDS011;3126;52.738;8.316;2023-04-10T06:50:45;22.33;;;13.93;;
6185;SDS011;3126;52.738;8.316;2023-04-10T06:55:46;23.88;;;13.20;;
6185;SDS011;3126;52.738;8.316;2023-04-10T07:00:47;24.02;;;14.55;;
6185;SDS011;3126;52.738;8.316;2023-04-10T07:05:48;22.98;;;14.32;;
6185;SDS011;3126;52.738;8.316;2023-04-10T07:10:50;21.33;;;14.85;;
6185;SDS011;3126;52.738;8.316;2023-04-10T07:15:51;20.45;;;12.85;;
6185;SDS011;3126;52.738;8.316;2023-04-10T07:20:52;23.50;;;13.13;;
6185;SDS011;3126;52.738;8.316;2023-04-10T07:25:53;19.20;;;12.80;;
6185;SDS011;3126;52.738;8.316;2023-04-10T07:30:55;18.60;;;13.05;;
6185;SDS011;3126;52.738;8.316;2023-04-10T07:35:56;17.13;;;11.85;;
6185;SDS011;3126;52.738;8.316;2023-04-10T07:40:57;17.10;;;11.88;;
6185;SDS011;3126;52.738;8.316;2023-04-10T07:45:58;17.70;;;12.07;;
6185;SDS011;3126;52.738;8.316;2023-04-10T07:50:59;16.20;;;11.20;;
6185;SDS011;3126;52.738;8.316;2023-04-10T07:56:01;16.05;;;12.38;;
6185;SDS011;3126;52.738;8.316;2023-04-10T08:01:02;17.23;;;10.55;;
6185;SDS011;3126;52.738;8.316;2023-04-10T08:06:03;17.17;;;10.93;;
6185;SDS011;3126;52.738;8.316;2023-04-10T08:11:20;13.32;;;10.13;;
6185;SDS011;3126;52.738;8.316;2023-04-10T08:16:25;13.68;;;9.48;;
6185;SDS011;3126;52.738;8.316;2023-04-10T08:21:27;11.85;;;8.88;;
6185;SDS011;3126;52.738;8.316;2023-04-10T08:26:28;12.07;;;9.45;;
6185;SDS011;3126;52.738;8.316;2023-04-10T08:31:29;13.55;;;9.35;;
6185;SDS011;3126;52.738;8.316;2023-04-10T08:36:30;11.90;;;9.20;;
6185;SDS011;3126;52.738;8.316;2023-04-10T08:41:31;11.20;;;8.60;;
6185;SDS011;3126;52.738;8.316;2023-04-10T08:46:33;12.60;;;10.15;;
6185;SDS011;3126;52.738;8.316;2023-04-10T08:51:38;11.23;;;9.55;;
6185;SDS011;3126;52.738;8.316;2023-04-10T08:56:41;11.20;;;9.55;;
6185;SDS011;3126;52.738;8.316;2023-04-10T09:01:43;15.38;;;9.65;;
6185;SDS011;3126;52.738;8.316;2023-04-10T09:06:44;10.20;;;8.93;;
6185;SDS011;3126;52.738;8.316;2023-04-10T09:17:09;14.77;;;10.25;;
6185;SDS011;3126;52.738;8.316;2023-04-10T09:22:10;10.50;;;8.65;;
6185;SDS011;3126;52.738;8.316;2023-04-10T09:27:30;12.02;;;9.07;;
6185;SDS011;3126;52.738;8.316;2023-04-10T09:32:42;11.23;;;8.75;;
6185;SDS011;3126;52.738;8.316;2023-04-10T09:37:44;10.35;;;8.60;;
6185;SDS011;3126;52.738;8.316;2023-04-10T09:42:45;10.38;;;8.60;;
6185;SDS011;3126;52.738;8.316;2023-04-10T09:48:02;10.65;;;8.68;;
6185;SDS011;3126;52.738;8.316;2023-04-10T09:53:05;9.23;;;8.00;;
6185;SDS011;3126;52.738;8.316;2023-04-10T09:58:06;10.60;;;8.55;;
6185;SDS011;3126;52.738;8.316;2023-04-10T10:03:11;11.75;;;7.95;;
6185;SDS011;3126;52.738;8.316;2023-04-10T10:08:14;9.60;;;7.75;;
6185;SDS011;3126;52.738;8.316;2023-04-10T10:13:15;9.63;;;8.32;;
6185;SDS011;3126;52.738;8.316;2023-04-10T10:18:24;9.38;;;8.40;;
6185;SDS011;3126;52.738;8.316;2023-04-10T10:23:27;9.02;;;6.90;;
6185;SDS011;3126;52.738;8.316;2023-04-10T10:28:28;8.45;;;7.60;;
6185;SDS011;3126;52.738;8.316;2023-04-10T10:33:31;8.43;;;7.53;;
6185;SDS011;3126;52.738;8.316;2023-04-10T10:38:32;9.07;;;7.35;;
6185;SDS011;3126;52.738;8.316;2023-04-10T10:43:41;7.38;;;6.60;;
6185;SDS011;3126;52.738;8.316;2023-04-10T10:48:55;8.18;;;5.90;;
6185;SDS011;3126;52.738;8.316;2023-04-10T10:53:56;8.23;;;6.45;;
6185;SDS011;3126;52.738;8.316;2023-04-10T10:58:57;7.72;;;6.43;;
6185;SDS011;3126;52.738;8.316;2023-04-10T11:03:58;7.40;;;6.10;;
6185;SDS011;3126;52.738;8.316;2023-04-10T11:09:00;9.85;;;6.28;;
6185;SDS011;3126;52.738;8.316;2023-04-10T11:19:06;7.15;;;6.45;;
6185;SDS011;3126;52.738;8.316;2023-04-10T11:24:08;8.18;;;6.72;;
6185;SDS011;3126;52.738;8.316;2023-04-10T11:34:18;8.63;;;6.32;;
6185;SDS011;3126;52.738;8.316;2023-04-10T11:39:19;6.07;;;5.55;;
6185;SDS011;3126;52.738;8.316;2023-04-10T11:49:34;5.82;;;5.18;;
6185;SDS011;3126;52.738;8.316;2023-04-10T11:54:35;6.35;;;5.70;;
6185;SDS011;3126;52.738;8.316;2023-04-10T11:59:37;5.50;;;4.90;;
6185;SDS011;3126;52.738;8.316;2023-04-10T12:04:38;5.85;;;5.15;;
6185;SDS011;3126;52.738;8.316;2023-04-10T12:09:39;5.82;;;5.22;;
6185;SDS011;3126;52.738;8.316;2023-04-10T12:14:41;5.70;;;5.10;;
6185;SDS011;3126;52.738;8.316;2023-04-10T12:19:42;7.07;;;5.63;;
6185;SDS011;3126;52.738;8.316;2023-04-10T12:29:45;6.70;;;6.07;;
6185;SDS011;3126;52.738;8.316;2023-04-10T12:34:53;6.25;;;5.65;;
6185;SDS011;3126;52.738;8.316;2023-04-10T12:40:06;6.40;;;5.80;;
6185;SDS011;3126;52.738;8.316;2023-04-10T12:45:07;5.78;;;5.18;;
6185;SDS011;3126;52.738;8.316;2023-04-10T12:50:09;5.72;;;5.18;;
6185;SDS011;3126;52.738;8.316;2023-04-10T12:55:17;5.60;;;5.10;;
6185;SDS011;3126;52.738;8.316;2023-04-10T13:00:19;8.20;;;6.00;;
6185;SDS011;3126;52.738;8.316;2023-04-10T13:05:20;6.28;;;5.00;;
6185;SDS011;3126;52.738;8.316;2023-04-10T13:10:21;6.68;;;4.90;;
6185;SDS011;3126;52.738;8.316;2023-04-10T13:15:23;5.25;;;4.70;;
6185;SDS011;3126;52.738;8.316;2023-04-10T13:20:24;5.45;;;4.95;;
6185;SDS011;3126;52.738;8.316;2023-04-10T13:25:25;6.35;;;4.93;;
6185;SDS011;3126;52.738;8.316;2023-04-10T13:30:27;4.75;;;4.32;;
6185;SDS011;3126;52.738;8.316;2023-04-10T13:35:28;4.55;;;4.15;;
6185;SDS011;3126;52.738;8.316;2023-04-10T13:40:29;5.13;;;4.63;;
6185;SDS011;3126;52.738;8.316;2023-04-10T13:45:30;5.22;;;3.78;;
6185;SDS011;3126;52.738;8.316;2023-04-10T13:50:32;4.38;;;3.97;;
6185;SDS011;3126;52.738;8.316;2023-04-10T13:55:33;5.05;;;4.28;;
6185;SDS011;3126;52.738;8.316;2023-04-10T14:00:36;5.60;;;4.28;;
6185;SDS011;3126;52.738;8.316;2023-04-10T14:05:38;4.53;;;3.60;;
6185;SDS011;3126;52.738;8.316;2023-04-10T14:10:39;4.53;;;4.13;;
6185;SDS011;3126;52.738;8.316;2023-04-10T14:15:40;4.22;;;3.83;;
6185;SDS011;3126;52.738;8.316;2023-04-10T14:20:41;4.28;;;3.88;;
6185;SDS011;3126;52.738;8.316;2023-04-10T14:25:43;3.65;;;3.38;;
6185;SDS011;3126;52.738;8.316;2023-04-10T14:30:45;4.13;;;3.83;;
6185;SDS011;3126;52.738;8.316;2023-04-10T14:35:47;3.92;;;3.50;;
6185;SDS011;3126;52.738;8.316;2023-04-10T14:40:48;4.38;;;3.97;;
6185;SDS011;3126;52.738;8.316;2023-04-10T14:45:49;6.07;;;3.83;;
6185;SDS011;3126;52.738;8.316;2023-04-10T14:50:50;3.50;;;3.20;;
6185;SDS011;3126;52.738;8.316;2023-04-10T14:55:51;4.05;;;3.75;;
6185;SDS011;3126;52.738;8.316;2023-04-10T15:00:52;3.88;;;3.58;;
6185;SDS011;3126;52.738;8.316;2023-04-10T15:06:00;5.45;;;3.83;;
6185;SDS011;3126;52.738;8.316;2023-04-10T15:11:01;4.80;;;4.32;;
6185;SDS011;3126;52.738;8.316;2023-04-10T15:16:04;5.22;;;4.72;;
6185;SDS011;3126;52.738;8.316;2023-04-10T15:21:07;7.85;;;6.68;;
6185;SDS011;3126;52.738;8.316;2023-04-10T15:26:11;13.13;;;9.75;;
6185;SDS011;3126;52.738;8.316;2023-04-10T15:31:15;10.60;;;7.57;;
6185;SDS011;3126;52.738;8.316;2023-04-10T15:36:16;3.20;;;2.90;;
6185;SDS011;3126;52.738;8.316;2023-04-10T15:41:18;3.55;;;3.25;;
6185;SDS011;3126;52.738;8.316;2023-04-10T15:46:19;4.55;;;3.15;;
6185;SDS011;3126;52.738;8.316;2023-04-10T15:51:20;2.97;;;2.67;;
6185;SDS011;3126;52.738;8.316;2023-04-10T15:56:21;3.35;;;3.05;;
6185;SDS011;3126;52.738;8.316;2023-04-10T16:01:22;3.22;;;2.92;;
6185;SDS011;3126;52.738;8.316;2023-04-10T16:06:23;3.20;;;2.90;;
6185;SDS011;3126;52.738;8.316;2023-04-10T16:11:25;3.83;;;3.45;;
6185;SDS011;3126;52.738;8.316;2023-04-10T16:16:26;4.18;;;3.78;;
6185;SDS011;3126;52.738;8.316;2023-04-10T16:21:27;4.38;;;3.97;;
6185;SDS011;3126;52.738;8.316;2023-04-10T16:26:28;4.40;;;4.00;;
6185;SDS011;3126;52.738;8.316;2023-04-10T16:31:30;4.30;;;3.90;;
6185;SDS011;3126;52.738;8.316;2023-04-10T16:36:31;3.75;;;3.45;;
6185;SDS011;3126;52.738;8.316;2023-04-10T16:41:32;3.60;;;3.28;;
6185;SDS011;3126;52.738;8.316;2023-04-10T16:46:33;3.53;;;3.22;;
6185;SDS011;3126;52.738;8.316;2023-04-10T16:51:34;3.55;;;3.25;;
6185;SDS011;3126;52.738;8.316;2023-04-10T16:56:35;6.82;;;5.50;;
6185;SDS011;3126;52.738;8.316;2023-04-10T17:01:36;8.90;;;6.70;;
6185;SDS011;3126;52.738;8.316;2023-04-10T17:06:38;7.05;;;5.22;;
6185;SDS011;3126;52.738;8.316;2023-04-10T17:11:39;3.47;;;3.00;;
6185;SDS011;3126;52.738;8.316;2023-04-10T17:16:40;3.97;;;3.58;;
6185;SDS011;3126;52.738;8.316;2023-04-10T17:21:41;3.70;;;3.33;;
6185;SDS011;3126;52.738;8.316;2023-04-10T17:26:43;4.32;;;3.10;;
6185;SDS011;3126;52.738;8.316;2023-04-10T17:31:44;4.55;;;3.30;;
6185;SDS011;3126;52.738;8.316;2023-04-10T17:36:45;5.75;;;3.75;;
6185;SDS011;3126;52.738;8.316;2023-04-10T17:41:48;4.43;;;4.03;;
6185;SDS011;3126;52.738;8.316;2023-04-10T17:46:49;4.03;;;3.60;;
6185;SDS011;3126;52.738;8.316;2023-04-10T17:51:52;4.47;;;4.07;;
6185;SDS011;3126;52.738;8.316;2023-04-10T17:56:53;4.40;;;4.00;;
6185;SDS011;3126;52.738;8.316;2023-04-10T18:01:55;3.92;;;3.55;;
6185;SDS011;3126;52.738;8.316;2023-04-10T18:06:56;4.40;;;3.08;;
6185;SDS011;3126;52.738;8.316;2023-04-10T18:11:57;4.75;;;4.28;;
6185;SDS011;3126;52.738;8.316;2023-04-10T18:16:58;4.35;;;3.95;;
6185;SDS011;3126;52.738;8.316;2023-04-10T18:22:00;4.13;;;3.78;;
6185;SDS011;3126;52.738;8.316;2023-04-10T18:27:01;5.07;;;3.58;;
6185;SDS011;3126;52.738;8.316;2023-04-10T18:32:02;4.35;;;3.65;;
6185;SDS011;3126;52.738;8.316;2023-04-10T18:37:03;5.15;;;4.03;;
6185;SDS011;3126;52.738;8.316;2023-04-10T18:42:05;3.72;;;3.42;;
6185;SDS011;3126;52.738;8.316;2023-04-10T18:52:09;3.40;;;3.10;;
6185;SDS011;3126;52.738;8.316;2023-04-10T18:57:11;3.50;;;3.20;;
6185;SDS011;3126;52.738;8.316;2023-04-10T19:02:12;3.90;;;2.72;;
6185;SDS011;3126;52.738;8.316;2023-04-10T19:07:13;3.13;;;2.83;;
6185;SDS011;3126;52.738;8.316;2023-04-10T19:12:14;3.17;;;2.88;;
6185;SDS011;3126;52.738;8.316;2023-04-10T19:17:15;3.38;;;3.08;;
6185;SDS011;3126;52.738;8.316;2023-04-10T19:22:16;5.22;;;3.30;;
6185;SDS011;3126;52.738;8.316;2023-04-10T19:27:17;4.15;;;3.45;;
6185;SDS011;3126;52.738;8.316;2023-04-10T19:32:18;4.10;;;3.58;;
6185;SDS011;3126;52.738;8.316;2023-04-10T19:37:19;4.07;;;3.67;;
6185;SDS011;3126;52.738;8.316;2023-04-10T19:42:20;5.22;;;3.80;;
6185;SDS011;3126;52.738;8.316;2023-04-10T19:47:21;5.28;;;3.50;;
6185;SDS011;3126;52.738;8.316;2023-04-10T19:52:22;5.93;;;3.70;;
6185;SDS011;3126;52.738;8.316;2023-04-10T19:57:23;4.60;;;3.22;;
6185;SDS011;3126;52.738;8.316;2023-04-10T20:02:24;4.63;;;3.40;;
6185;SDS011;3126;52.738;8.316;2023-04-10T20:07:25;3.65;;;3.35;;
6185;SDS011;3126;52.738;8.316;2023-04-10T20:12:27;4.60;;;3.50;;
6185;SDS011;3126;52.738;8.316;2023-04-10T20:17:29;4.50;;;3.80;;
6185;SDS011;3126;52.738;8.316;2023-04-10T20:22:30;4.30;;;3.60;;
6185;SDS011;3126;52.738;8.316;2023-04-10T20:27:31;5.00;;;4.13;;
6185;SDS011;3126;52.738;8.316;2023-04-10T20:32:32;5.15;;;3.97;;
6185;SDS011;3126;52.738;8.316;2023-04-10T20:37:34;5.20;;;3.85;;
6185;SDS011;3126;52.738;8.316;2023-04-10T20:42:35;7.03;;;4.10;;
6185;SDS011;3126;52.738;8.316;2023-04-10T20:47:35;4.82;;;4.10;;
6185;SDS011;3126;52.738;8.316;2023-04-10T20:52:36;5.22;;;3.78;;
6185;SDS011;3126;52.738;8.316;2023-04-10T20:57:39;4.55;;;3.42;;
6185;SDS011;3126;52.738;8.316;2023-04-10T21:02:40;4.30;;;3.75;;
6185;SDS011;3126;52.738;8.316;2023-04-10T21:07:41;6.05;;;3.40;;
6185;SDS011;3126;52.738;8.316;2023-04-10T21:12:42;5.45;;;3.40;;
6185;SDS011;3126;52.738;8.316;2023-04-10T21:17:43;5.15;;;3.60;;
6185;SDS011;3126;52.738;8.316;2023-04-10T21:22:44;4.75;;;3.67;;
6185;SDS011;3126;52.738;8.316;2023-04-10T21:27:45;5.55;;;4.10;;
6185;SDS011;3126;52.738;8.316;2023-04-10T21:32:46;5.57;;;4.13;;
6185;SDS011;3126;52.738;8.316;2023-04-10T21:37:47;4.80;;;3.55;;
6185;SDS011;3126;52.738;8.316;2023-04-10T21:42:50;7.45;;;4.40;;
6185;SDS011;3126;52.738;8.316;2023-04-10T21:47:51;6.22;;;4.38;;
6185;SDS011;3126;52.738;8.316;2023-04-10T21:52:52;5.57;;;3.90;;
6185;SDS011;3126;52.738;8.316;2023-04-10T21:57:53;4.57;;;4.10;;
6185;SDS011;3126;52.738;8.316;2023-04-10T22:02:54;4.78;;;3.42;;
6185;SDS011;3126;52.738;8.316;2023-04-10T22:07:55;6.60;;;4.38;;
6185;SDS011;3126;52.738;8.316;2023-04-10T22:12:56;4.85;;;3.15;;
6185;SDS011;3126;52.738;8.316;2023-04-10T22:17:57;4.20;;;3.80;;
6185;SDS011;3126;52.738;8.316;2023-04-10T22:22:58;5.35;;;3.65;;
6185;SDS011;3126;52.738;8.316;2023-04-10T22:27:59;5.57;;;2.88;;
6185;SDS011;3126;52.738;8.316;2023-04-10T22:33:00;4.95;;;3.53;;
6185;SDS011;3126;52.738;8.316;2023-04-10T22:38:01;4.40;;;3.42;;
6185;SDS011;3126;52.738;8.316;2023-04-10T22:43:02;7.72;;;3.95;;
6185;SDS011;3126;52.738;8.316;2023-04-10T22:48:03;3.67;;;3.33;;
6185;SDS011;3126;52.738;8.316;2023-04-10T22:53:04;5.18;;;3.40;;
6185;SDS011;3126;52.738;8.316;2023-04-10T22:58:06;5.50;;;3.47;;
6185;SDS011;3126;52.738;8.316;2023-04-10T23:03:07;4.85;;;3.03;;
6185;SDS011;3126;52.738;8.316;2023-04-10T23:08:08;4.50;;;3.05;;
6185;SDS011;3126;52.738;8.316;2023-04-10T23:13:09;4.85;;;2.97;;
6185;SDS011;3126;52.738;8.316;2023-04-10T23:18:10;5.47;;;3.28;;
6185;SDS011;3126;52.738;8.316;2023-04-10T23:23:15;4.95;;;3.88;;
6185;SDS011;3126;52.738;8.316;2023-04-10T23:28:16;5.15;;;3.20;;
6185;SDS011;3126;52.738;8.316;2023-04-10T23:33:17;4.65;;;3.78;;
6185;SDS011;3126;52.738;8.316;2023-04-10T23:38:18;6.07;;;3.38;;
6185;SDS011;3126;52.738;8.316;2023-04-10T23:43:20;4.57;;;3.25;;
6185;SDS011;3126;52.738;8.316;2023-04-10T23:48:21;3.85;;;2.80;;
6185;SDS011;3126;52.738;8.316;2023-04-10T23:53:22;5.05;;;3.08;;
6185;SDS011;3126;52.738;8.316;2023-04-10T23:58:23;3.40;;;2.72;;
